createdAt,value
2022-12-23T00:01:53.238Z,99345.10
2022-12-23T00:04:24.200Z,99336.67
2022-12-23T00:06:54.963Z,99334.44
2022-12-23T00:09:25.692Z,99331.32
2022-12-23T00:12:13.822Z,99331.31
2022-12-23T00:15:10.681Z,99328.85
2022-12-23T00:17:44.771Z,99327.27
2022-12-23T00:20:17.197Z,99317.90
2022-12-23T00:23:06.304Z,99313.92
2022-12-23T00:25:41.743Z,99310.70
2022-12-23T00:28:16.388Z,99298.23
2022-12-23T00:30:52.318Z,99296.77
2022-12-23T00:33:25.195Z,99284.52
2022-12-23T00:35:54.831Z,99280.59
2022-12-23T00:38:39.413Z,99277.85
2022-12-23T00:41:32.238Z,99279.15
2022-12-23T00:44:03.339Z,99274.17
2022-12-23T00:46:34.855Z,99271.64
2022-12-23T00:49:23.963Z,99264.91
2022-12-23T00:51:54.611Z,99261.16
2022-12-23T00:54:25.787Z,99258.92
2022-12-23T00:56:56.613Z,99260.66
2022-12-23T00:59:27.448Z,99261.27
2022-12-23T01:02:15.748Z,99256.46
2022-12-23T01:05:06.297Z,99259.57
2022-12-23T01:07:37.475Z,99259.63
2022-12-23T01:10:09.315Z,99261.10
2022-12-23T01:12:39.949Z,99258.80
2022-12-23T01:15:12.101Z,99258.55
2022-12-23T01:17:42.836Z,99256.30
2022-12-23T01:20:15.033Z,99248.80
2022-12-23T01:22:45.652Z,99249.18
2022-12-23T01:25:16.333Z,99246.55
2022-12-23T01:27:46.939Z,99239.33
2022-12-23T01:30:18.070Z,99234.73
2022-12-23T01:32:48.831Z,99236.81
2022-12-23T01:35:19.508Z,99235.50
2022-12-23T01:37:50.217Z,99232.65
2022-12-23T01:40:21.083Z,99231.79
2022-12-23T01:42:51.794Z,99231.95
2022-12-23T01:45:28.940Z,99232.00
2022-12-23T01:48:03.087Z,99231.56
2022-12-23T01:50:37.550Z,99232.06
2022-12-23T01:53:10.922Z,99228.56
2022-12-23T01:55:48.597Z,99229.48
2022-12-23T01:58:22.091Z,99224.83
2022-12-23T02:01:11.249Z,99225.40
2022-12-23T02:03:45.143Z,99226.51
2022-12-23T02:06:38.916Z,99224.86
2022-12-23T02:09:20.413Z,99221.23
2022-12-23T02:12:15.547Z,99218.13
2022-12-23T02:15:38.156Z,99218.29
2022-12-23T02:18:29.097Z,99223.98
2022-12-23T02:21:05.226Z,99220.06
2022-12-23T02:24:22.900Z,99221.30
2022-12-23T02:27:17.843Z,99220.81
2022-12-23T02:30:30.850Z,99223.83
2022-12-23T02:33:29.354Z,99225.20
2022-12-23T02:36:10.315Z,99230.73
2022-12-23T02:38:49.393Z,99226.48
2022-12-23T02:41:24.411Z,99218.21
2022-12-23T02:44:01.266Z,99212.81
2022-12-23T02:46:37.473Z,99213.91
2022-12-23T02:49:12.886Z,99211.27
2022-12-23T02:51:48.728Z,99205.31
2022-12-23T02:54:23.929Z,99203.95
2022-12-23T02:56:57.744Z,99208.66
2022-12-23T02:59:31.810Z,99211.02
2022-12-23T03:02:03.558Z,99209.23
2022-12-23T03:04:34.274Z,99211.75
2022-12-23T03:07:07.815Z,99206.98
2022-12-23T03:09:48.272Z,99200.81
2022-12-23T03:12:31.070Z,99200.92
2022-12-23T03:15:13.817Z,99197.42
2022-12-23T03:18:00.047Z,99190.03
2022-12-23T03:20:37.178Z,99186.43
2022-12-23T03:23:16.708Z,99185.70
2022-12-23T03:25:55.018Z,99183.48
2022-12-23T03:28:32.410Z,99192.67
2022-12-23T03:31:04.928Z,99192.80
2022-12-23T03:33:40.665Z,99193.45
2022-12-23T03:36:18.161Z,99195.65
2022-12-23T03:38:51.261Z,99192.80
2022-12-23T03:41:26.449Z,99192.27
2022-12-23T03:44:01.599Z,99190.09
2022-12-23T03:46:38.195Z,99191.33
2022-12-23T03:49:13.942Z,99190.38
2022-12-23T03:51:49.977Z,99190.64
2022-12-23T03:54:27.046Z,99189.44
2022-12-23T03:57:02.560Z,99192.60
2022-12-23T03:59:35.788Z,99199.36
2022-12-23T04:02:15.094Z,99201.80
2022-12-23T04:04:58.878Z,99202.76
2022-12-23T04:07:35.974Z,99200.02
2022-12-23T04:10:08.999Z,99194.26
2022-12-23T04:12:41.183Z,99196.30
2022-12-23T04:15:13.551Z,99198.42
2022-12-23T04:17:44.377Z,99196.71
2022-12-23T04:20:15.892Z,99194.34
2022-12-23T04:22:46.824Z,99194.47
2022-12-23T04:25:18.773Z,99192.39
2022-12-23T04:27:49.534Z,99196.39
2022-12-23T04:30:20.448Z,99198.57
2022-12-23T04:32:51.357Z,99201.20
2022-12-23T04:35:22.683Z,99203.13
2022-12-23T04:37:53.285Z,99197.20
2022-12-23T04:40:23.959Z,99201.65
2022-12-23T04:42:54.637Z,99196.34
2022-12-23T04:45:25.328Z,99196.01
2022-12-23T04:47:56.299Z,99195.45
2022-12-23T04:50:26.927Z,99195.45
2022-12-23T04:52:57.534Z,99192.70
2022-12-23T04:55:28.162Z,99187.23
2022-12-23T04:57:58.864Z,99192.27
2022-12-23T05:00:32.730Z,99197.88
2022-12-23T05:03:08.061Z,99195.46
2022-12-23T05:05:43.591Z,99196.60
2022-12-23T05:08:14.231Z,99190.02
2022-12-23T05:10:45.583Z,99188.77
2022-12-23T05:13:16.208Z,99192.02
2022-12-23T05:15:50.184Z,99194.65
2022-12-23T05:18:21.715Z,99190.25
2022-12-23T05:20:53.058Z,99187.23
2022-12-23T05:23:23.731Z,99184.17
2022-12-23T05:25:55.525Z,99183.02
2022-12-23T05:28:26.583Z,99183.08
2022-12-23T05:31:02.825Z,99186.63
2022-12-23T05:33:34.873Z,99187.07
2022-12-23T05:36:06.556Z,99187.11
2022-12-23T05:38:37.092Z,99185.48
2022-12-23T05:41:08.167Z,99188.11
2022-12-23T05:43:38.803Z,99195.83
2022-12-23T05:46:09.853Z,99199.66
2022-12-23T05:48:40.536Z,99196.70
2022-12-23T05:51:11.238Z,99195.44
2022-12-23T05:53:41.889Z,99194.60
2022-12-23T05:56:12.863Z,99196.04
2022-12-23T05:58:43.391Z,99200.48
2022-12-23T06:01:14.056Z,99203.77
2022-12-23T06:03:44.878Z,99202.88
2022-12-23T06:06:16.010Z,99202.84
2022-12-23T06:08:46.727Z,99209.29
2022-12-23T06:11:17.685Z,99208.14
2022-12-23T06:13:48.406Z,99212.95
2022-12-23T06:16:19.177Z,99215.14
2022-12-23T06:18:49.843Z,99213.92
2022-12-23T06:21:20.457Z,99217.65
2022-12-23T06:23:51.053Z,99221.80
2022-12-23T06:26:22.189Z,99218.50
2022-12-23T06:28:52.963Z,99226.90
2022-12-23T06:31:23.665Z,99225.39
2022-12-23T06:33:54.441Z,99227.52
2022-12-23T06:36:25.144Z,99233.66
2022-12-23T06:38:55.737Z,99235.26
2022-12-23T06:41:26.417Z,99242.83
2022-12-23T06:43:57.133Z,99243.30
2022-12-23T06:46:27.849Z,99241.78
2022-12-23T06:48:58.613Z,99244.25
2022-12-23T06:51:29.319Z,99248.52
2022-12-23T06:54:01.374Z,99253.09
2022-12-23T06:56:32.083Z,99257.44
2022-12-23T06:59:02.945Z,99259.80
2022-12-23T07:01:33.766Z,99260.30
2022-12-23T07:04:04.587Z,99263.42
2022-12-23T07:06:35.269Z,99263.59
2022-12-23T07:09:06.303Z,99263.38
2022-12-23T07:11:37.028Z,99255.05
2022-12-23T07:14:07.766Z,99259.94
2022-12-23T07:16:38.441Z,99261.85
2022-12-23T07:19:09.302Z,99260.76
2022-12-23T07:21:40.030Z,99263.90
2022-12-23T07:24:11.697Z,99266.48
2022-12-23T07:26:42.476Z,99268.11
2022-12-23T07:29:13.125Z,99270.31
2022-12-23T07:31:43.885Z,99274.49
2022-12-23T07:34:14.728Z,99277.25
2022-12-23T07:36:45.518Z,99278.15
2022-12-23T07:39:16.196Z,99281.50
2022-12-23T07:41:46.855Z,99285.84
2022-12-23T07:44:17.852Z,99289.69
2022-12-23T07:46:48.625Z,99288.59
2022-12-23T07:49:19.325Z,99289.20
2022-12-23T07:51:50.033Z,99292.77
2022-12-23T07:54:20.664Z,99288.11
2022-12-23T07:56:51.256Z,99287.51
2022-12-23T07:59:21.980Z,99290.28
2022-12-23T08:01:52.792Z,99293.17
2022-12-23T08:04:23.750Z,99293.95
2022-12-23T08:06:54.361Z,99294.83
2022-12-23T08:09:25.037Z,99296.63
2022-12-23T08:11:55.775Z,99296.59
2022-12-23T08:14:26.496Z,99294.79
2022-12-23T08:16:57.414Z,99294.30
2022-12-23T08:19:28.005Z,99294.63
2022-12-23T08:21:58.633Z,99289.92
2022-12-23T08:24:29.294Z,99293.75
2022-12-23T08:27:00.032Z,99295.25
2022-12-23T08:29:36.057Z,99293.83
2022-12-23T08:32:08.359Z,99290.52
2022-12-23T08:34:39.068Z,99297.77
2022-12-23T08:37:09.640Z,99299.74
2022-12-23T08:39:40.243Z,99297.98
2022-12-23T08:42:10.848Z,99304.45
2022-12-23T08:44:41.543Z,99303.69
2022-12-23T08:47:12.203Z,99302.97
2022-12-23T08:49:43.052Z,99309.05
2022-12-23T08:52:13.748Z,99313.00
2022-12-23T08:54:44.325Z,99322.33
2022-12-23T08:57:15.254Z,99326.05
2022-12-23T08:59:47.084Z,99325.23
2022-12-23T09:02:17.883Z,99323.77
2022-12-23T09:04:48.678Z,99326.81
2022-12-23T09:07:19.315Z,99322.94
2022-12-23T09:09:50.146Z,99325.66
2022-12-23T09:12:20.864Z,99324.18
2022-12-23T09:14:51.462Z,99323.65
2022-12-23T09:17:22.438Z,99325.56
2022-12-23T09:19:53.503Z,99325.06
2022-12-23T09:22:24.248Z,99323.91
2022-12-23T09:24:58.650Z,99328.25
2022-12-23T09:27:33.810Z,99329.90
2022-12-23T09:30:04.976Z,99330.88
2022-12-23T09:32:35.846Z,99325.00
2022-12-23T09:35:07.893Z,99324.91
2022-12-23T09:37:38.511Z,99333.39
2022-12-23T09:40:14.676Z,99328.95
2022-12-23T09:42:56.578Z,99332.69
2022-12-23T09:45:46.047Z,99333.88
2022-12-23T09:48:22.015Z,99336.68
2022-12-23T09:50:53.072Z,99341.67
2022-12-23T09:53:27.928Z,99340.52
2022-12-23T09:56:03.084Z,99340.19
2022-12-23T09:58:44.583Z,99339.85
2022-12-23T10:01:20.316Z,99342.10
2022-12-23T10:07:23.728Z,99338.37
2022-12-23T10:09:57.423Z,99345.20
2022-12-23T10:12:39.686Z,99338.90
2022-12-23T10:15:23.496Z,99339.33
2022-12-23T10:17:57.749Z,99340.73
2022-12-23T10:20:39.080Z,99342.75
2022-12-23T10:23:16.091Z,99347.63
2022-12-23T10:25:52.973Z,99349.74
2022-12-23T10:28:24.268Z,99353.92
2022-12-23T10:34:05.697Z,99349.30
2022-12-23T10:36:45.531Z,99341.89
2022-12-23T10:39:26.723Z,99344.31
2022-12-23T10:42:09.729Z,99339.69
2022-12-23T10:45:10.672Z,99338.27
2022-12-23T10:48:02.132Z,99339.79
2022-12-23T10:50:46.153Z,99334.02
2022-12-23T10:53:24.053Z,99330.06
2022-12-23T10:55:55.803Z,99328.41
2022-12-23T10:58:27.536Z,99325.71
2022-12-23T11:01:00.299Z,99322.20
2022-12-23T11:03:36.208Z,99323.77
2022-12-23T11:06:10.771Z,99320.10
2022-12-23T11:08:42.062Z,99319.66
2022-12-23T11:11:12.642Z,99324.16
2022-12-23T11:13:45.856Z,99327.95
2022-12-23T11:16:26.665Z,99330.64
2022-12-23T11:19:02.781Z,99333.12
2022-12-23T11:21:34.865Z,99333.73
2022-12-23T11:24:22.373Z,99335.54
2022-12-23T11:27:02.558Z,99332.30
2022-12-23T11:29:35.776Z,99336.96
2022-12-23T11:32:20.143Z,99339.88
2022-12-23T11:34:52.000Z,99346.92
2022-12-23T11:37:36.481Z,99343.50
2022-12-23T11:40:16.446Z,99347.21
2022-12-23T11:42:53.302Z,99347.32
2022-12-23T11:45:28.864Z,99353.45
2022-12-23T11:47:59.544Z,99351.25
2022-12-23T11:50:34.640Z,99358.27
2022-12-23T11:53:13.573Z,99357.38
2022-12-23T11:55:57.332Z,99353.79
2022-12-23T11:58:30.123Z,99356.69
2022-12-23T12:01:08.037Z,99354.43
2022-12-23T12:03:52.221Z,99354.02
2022-12-23T12:06:24.717Z,99362.92
2022-12-23T12:08:58.771Z,99362.55
2022-12-23T12:11:36.625Z,99362.73
2022-12-23T12:14:09.659Z,99365.80
2022-12-23T12:16:52.911Z,99366.69
2022-12-23T12:19:27.143Z,99357.94
2022-12-23T12:22:03.449Z,99353.37
2022-12-23T12:24:40.145Z,99344.84
2022-12-23T12:27:12.156Z,99348.23
2022-12-23T12:29:49.377Z,99342.98
2022-12-23T12:32:29.119Z,99342.08
2022-12-23T12:35:04.014Z,99343.48
2022-12-23T12:37:42.021Z,99339.13
2022-12-23T12:40:26.113Z,99339.15
2022-12-23T12:43:00.720Z,99337.28
2022-12-23T12:45:40.319Z,99338.44
2022-12-23T12:48:26.850Z,99339.84
2022-12-23T12:51:03.819Z,99339.73
2022-12-23T12:53:36.715Z,99344.54
2022-12-23T12:56:14.062Z,99343.61
2022-12-23T12:58:47.211Z,99344.30
2022-12-23T13:01:33.794Z,99339.52
2022-12-23T13:04:29.417Z,99338.14
2022-12-23T13:07:09.797Z,99342.91
2022-12-23T13:09:49.280Z,99339.59
2022-12-23T13:12:30.509Z,99337.17
2022-12-23T13:15:13.391Z,99340.36
2022-12-23T13:17:55.797Z,99340.66
2022-12-23T13:20:34.872Z,99340.06
2022-12-23T13:23:41.600Z,99341.98
2022-12-23T13:26:11.053Z,99344.58
2022-12-23T13:28:51.335Z,99336.47
2022-12-23T13:31:32.912Z,99331.11
2022-12-23T13:34:12.391Z,99334.84
2022-12-23T13:36:53.797Z,99328.83
2022-12-23T13:39:34.135Z,99336.46
2022-12-23T13:42:10.482Z,99334.46
2022-12-23T13:44:42.164Z,99335.02
2022-12-23T13:47:23.102Z,99331.35
2022-12-23T13:50:01.030Z,99332.20
2022-12-23T13:52:50.134Z,99330.83
2022-12-23T13:55:37.085Z,99329.95
2022-12-23T13:58:16.384Z,99330.45
2022-12-23T14:00:47.699Z,99325.21
2022-12-23T14:03:26.771Z,99321.64
2022-12-23T14:05:56.072Z,99317.09
2022-12-23T14:08:43.757Z,99312.34
2022-12-23T14:11:24.924Z,99315.90
2022-12-23T14:14:00.498Z,99313.98
2022-12-23T14:16:51.506Z,99314.69
2022-12-23T14:19:45.981Z,99307.29
2022-12-23T14:22:33.100Z,99308.45
2022-12-23T14:25:28.234Z,99306.10
2022-12-23T14:28:09.022Z,99308.02
2022-12-23T14:30:45.081Z,99310.43
2022-12-23T14:33:26.844Z,99313.62
2022-12-23T14:36:14.808Z,99312.69
2022-12-23T14:39:24.943Z,99312.38
2022-12-23T14:42:01.683Z,99315.63
2022-12-23T14:44:52.862Z,99314.96
2022-12-23T14:47:40.384Z,99316.33
2022-12-23T14:50:43.042Z,99311.45
2022-12-23T14:53:26.365Z,99306.88
2022-12-23T14:56:21.723Z,99299.38
2022-12-23T14:59:17.599Z,99294.83
2022-12-23T15:01:53.358Z,99301.85
2022-12-23T15:04:28.265Z,99300.20
2022-12-23T15:07:04.644Z,99301.64
2022-12-23T15:10:15.219Z,99305.20
2022-12-23T15:12:53.118Z,99304.52
2022-12-23T15:15:26.464Z,99304.79
2022-12-23T15:18:06.990Z,99304.80
2022-12-23T15:20:37.704Z,99303.72
2022-12-23T15:23:15.876Z,99303.45
2022-12-23T15:25:49.352Z,99306.96
2022-12-23T15:28:23.710Z,99314.62
2022-12-23T15:30:57.058Z,99324.98
2022-12-23T15:36:32.305Z,99320.61
2022-12-23T15:39:08.520Z,99313.76
2022-12-23T15:41:45.977Z,99314.52
2022-12-23T15:44:20.913Z,99302.90
2022-12-23T15:46:52.118Z,99290.73
2022-12-23T15:49:23.922Z,99295.16
2022-12-23T15:52:07.987Z,99296.42
2022-12-23T15:54:45.484Z,99293.96
2022-12-23T15:57:20.359Z,99290.94
2022-12-23T15:59:51.873Z,99289.11
2022-12-23T16:05:29.509Z,99285.33
2022-12-23T16:08:28.659Z,99288.77
2022-12-23T16:11:13.286Z,99285.27
2022-12-23T16:13:58.377Z,99292.07
2022-12-23T16:16:41.316Z,99292.07
2022-12-23T16:19:42.320Z,99292.31
2022-12-23T16:22:23.233Z,99291.43
2022-12-23T16:25:00.303Z,99289.07
2022-12-23T16:27:39.697Z,99283.91
2022-12-23T16:30:18.306Z,99283.08
2022-12-23T16:32:54.494Z,99279.89
2022-12-23T16:35:37.938Z,99281.23
2022-12-23T16:38:21.522Z,99278.27
2022-12-23T16:40:54.118Z,99285.69
2022-12-23T16:43:26.329Z,99277.40
2022-12-23T16:45:58.502Z,99272.50
2022-12-23T16:48:33.015Z,99277.55
2022-12-23T16:51:07.016Z,99276.98
2022-12-23T16:53:38.035Z,99279.27
2022-12-23T16:56:14.500Z,99275.27
2022-12-23T16:58:45.904Z,99269.67
2022-12-23T17:01:21.760Z,99264.35
2022-12-23T17:03:53.549Z,99259.84
2022-12-23T17:06:25.643Z,99261.10
2022-12-23T17:08:57.372Z,99261.02
2022-12-23T17:11:32.810Z,99264.75
2022-12-23T17:14:07.843Z,99264.98
2022-12-23T17:16:41.259Z,99261.45
2022-12-23T17:19:12.987Z,99254.83
2022-12-23T17:21:45.552Z,99246.70
2022-12-23T17:24:23.162Z,99236.65
2022-12-23T17:26:55.345Z,99236.15
2022-12-23T17:29:27.142Z,99234.40
2022-12-23T17:31:58.017Z,99229.69
2022-12-23T17:34:28.897Z,99225.30
2022-12-23T17:37:01.195Z,99219.60
2022-12-23T17:39:32.098Z,99211.86
2022-12-23T17:42:03.253Z,99207.16
2022-12-23T17:44:34.203Z,99206.29
2022-12-23T17:47:07.029Z,99201.02
2022-12-23T17:49:37.969Z,99199.95
2022-12-23T17:52:11.515Z,99193.74
2022-12-23T17:54:42.466Z,99193.03
2022-12-23T17:57:22.662Z,99193.48
2022-12-23T17:59:55.105Z,99197.83
2022-12-23T18:02:29.450Z,99197.87
2022-12-23T18:05:00.715Z,99191.61
2022-12-23T18:07:31.397Z,99184.08
2022-12-23T18:10:02.099Z,99178.58
2022-12-23T18:12:37.089Z,99175.67
2022-12-23T18:15:14.425Z,99172.90
2022-12-23T18:17:45.044Z,99181.40
2022-12-23T18:20:20.543Z,99188.59
2022-12-23T18:22:53.167Z,99195.33
2022-12-23T18:25:27.053Z,99189.84
2022-12-23T18:27:57.709Z,99184.96
2022-12-23T18:30:28.393Z,99184.14
2022-12-23T18:32:59.150Z,99187.43
2022-12-23T18:35:32.174Z,99190.01
2022-12-23T18:38:03.217Z,99188.70
2022-12-23T18:40:33.927Z,99194.52
2022-12-23T18:43:04.904Z,99194.73
2022-12-23T18:45:38.485Z,99193.09
2022-12-23T18:48:11.135Z,99190.90
2022-12-23T18:50:43.629Z,99190.05
2022-12-23T18:53:23.684Z,99187.08
2022-12-23T18:55:55.743Z,99183.95
2022-12-23T18:58:26.744Z,99186.38
2022-12-23T19:00:57.823Z,99186.98
2022-12-23T19:03:30.610Z,99188.84
2022-12-23T19:06:06.720Z,99192.05
2022-12-23T19:08:39.097Z,99189.85
2022-12-23T19:11:14.302Z,99194.89
2022-12-23T19:13:45.343Z,99192.48
2022-12-23T19:16:18.327Z,99190.57
2022-12-23T19:18:50.161Z,99180.64
2022-12-23T19:21:21.085Z,99169.70
2022-12-23T19:23:51.855Z,99157.80
2022-12-23T19:26:22.527Z,99151.33
2022-12-23T19:28:53.431Z,99144.27
2022-12-23T19:31:24.246Z,99139.73
2022-12-23T19:33:54.979Z,99141.38
2022-12-23T19:36:25.875Z,99132.27
2022-12-23T19:38:58.734Z,99131.14
2022-12-23T19:41:27.870Z,99120.83
2022-12-23T19:43:58.746Z,99112.78
2022-12-23T19:46:29.456Z,99113.55
2022-12-23T19:49:00.496Z,99112.81
2022-12-23T19:51:31.655Z,99095.10
2022-12-23T19:54:02.413Z,99084.08
2022-12-23T19:56:33.371Z,99078.02
2022-12-23T19:59:05.168Z,99077.35
2022-12-23T20:01:35.977Z,99073.17
2022-12-23T20:04:07.047Z,99054.97
2022-12-23T20:06:39.144Z,99056.33
2022-12-23T20:09:11.696Z,99051.17
2022-12-23T20:11:44.452Z,99045.64
2022-12-23T20:14:16.917Z,99038.48
2022-12-23T20:16:48.384Z,99034.20
2022-12-23T20:19:19.575Z,99025.91
2022-12-23T20:21:50.176Z,99025.26
2022-12-23T20:24:20.868Z,99020.38
2022-12-23T20:26:51.490Z,99012.93
2022-12-23T20:29:22.288Z,99012.11
2022-12-23T20:31:52.934Z,99015.07
2022-12-23T20:34:23.779Z,99023.02
2022-12-23T20:36:54.493Z,99025.41
2022-12-23T20:39:25.136Z,99020.75
2022-12-23T20:41:57.454Z,99019.89
2022-12-23T20:44:37.099Z,99017.09
2022-12-23T20:47:08.511Z,99017.14
2022-12-23T20:49:39.244Z,99020.11
2022-12-23T20:52:09.863Z,99013.10
2022-12-23T20:54:40.707Z,99018.30
2022-12-23T20:57:11.368Z,99014.19
2022-12-23T20:59:44.726Z,99011.67
2022-12-23T21:02:17.230Z,99022.63
2022-12-23T21:04:48.368Z,99024.70
2022-12-23T21:07:19.087Z,99038.14
2022-12-23T21:09:49.951Z,99037.96
2022-12-23T21:12:20.831Z,99037.58
2022-12-23T21:14:51.493Z,99036.27
2022-12-23T21:17:23.860Z,99028.44
2022-12-23T21:19:54.656Z,99027.89
2022-12-23T21:22:25.312Z,99020.27
2022-12-23T21:24:56.037Z,99017.40
2022-12-23T21:27:26.838Z,99013.08
2022-12-23T21:29:57.785Z,99010.50
2022-12-23T21:32:28.424Z,99007.60
2022-12-23T21:35:01.697Z,99001.89
2022-12-23T21:37:33.101Z,98998.61
2022-12-23T21:40:03.768Z,98999.59
2022-12-23T21:42:34.442Z,98999.59
2022-12-23T21:45:05.833Z,98989.24
2022-12-23T21:47:36.690Z,98989.69
2022-12-23T21:50:09.607Z,98986.78
2022-12-23T21:52:40.218Z,98986.23
2022-12-23T21:55:15.665Z,98986.27
2022-12-23T21:57:46.314Z,98985.94
2022-12-23T22:00:18.008Z,98977.98
2022-12-23T22:02:48.925Z,98975.96
2022-12-23T22:05:19.653Z,98982.52
2022-12-23T22:07:50.317Z,98971.94
2022-12-23T22:10:21.364Z,98975.77
2022-12-23T22:12:52.157Z,98978.52
2022-12-23T22:15:22.964Z,98975.70
2022-12-23T22:17:53.667Z,98982.48
2022-12-23T22:20:24.494Z,98983.33
2022-12-23T22:22:55.773Z,98980.69
2022-12-23T22:25:26.514Z,98981.39
2022-12-23T22:27:57.258Z,98990.11
2022-12-23T22:30:27.843Z,98995.15
2022-12-23T22:32:58.445Z,98996.09
2022-12-23T22:35:29.909Z,99004.08
2022-12-23T22:38:00.615Z,99007.05
2022-12-23T22:40:31.465Z,99011.89
2022-12-23T22:43:02.250Z,99015.35
2022-12-23T22:45:32.964Z,99018.65
2022-12-23T22:48:03.773Z,99022.45
2022-12-23T22:50:34.373Z,99033.63
2022-12-23T22:53:05.268Z,99048.05
2022-12-23T22:55:35.972Z,99053.88
2022-12-23T22:58:06.605Z,99048.23
2022-12-23T23:00:37.444Z,99051.09
2022-12-23T23:03:08.121Z,99056.98
2022-12-23T23:05:38.722Z,99072.04
2022-12-23T23:08:09.625Z,99078.27
2022-12-23T23:10:40.352Z,99089.48
2022-12-23T23:13:11.105Z,99083.65
2022-12-23T23:15:41.838Z,99074.37
2022-12-23T23:18:12.452Z,99072.73
2022-12-23T23:20:43.186Z,99071.27
2022-12-23T23:23:13.944Z,99095.56
2022-12-23T23:25:45.468Z,99079.23
2022-12-23T23:28:16.319Z,99073.91
2022-12-23T23:30:47.148Z,99061.23
2022-12-23T23:33:19.243Z,99072.38
2022-12-23T23:35:56.532Z,99080.98
2022-12-23T23:38:28.344Z,99078.88
2022-12-23T23:41:00.167Z,99077.33
2022-12-23T23:43:30.932Z,99075.43
2022-12-23T23:46:01.651Z,99078.14
2022-12-23T23:48:32.428Z,99081.41
2022-12-23T23:51:09.501Z,99081.96
2022-12-23T23:53:40.505Z,99079.65
2022-12-23T23:56:11.973Z,99072.27
2022-12-23T23:58:42.686Z,99077.19
